Time,TemperatureF,DewpointF,PressureIn,WindDirection,WindDirectionDegrees,WindSpeedMPH,WindSpeedGustMPH,Humidity,HourlyPrecipIn,Conditions,Clouds,dailyrainin,SoftwareType,DateUTC
2013-03-15 00:14:00,51.4,50.6,30.26,WSW,255,0.0,4.0,97,0.00,CLR,SCT,0.00,WeatherDisplay:10.37,2013-03-15 07:14:00,
2013-03-15 00:29:00,51.3,50.5,30.27,NW,307,0.0,5.0,97,0.01,RA,SCT,0.01,WeatherDisplay:10.37,2013-03-15 07:29:00,
2013-03-15 00:44:00,51.3,50.5,30.27,East,94,1.0,3.0,97,0.00,CLR,SCT,0.01,WeatherDisplay:10.37,2013-03-15 07:44:00,
2013-03-15 00:59:00,51.2,50.4,30.26,West,273,0.0,4.0,97,0.00,CLR,SCT,0.01,WeatherDisplay:10.37,2013-03-15 07:59:00,
2013-03-15 01:14:00,51.2,50.4,30.27,WSW,250,1.0,3.0,97,0.01,RA,SCT,0.02,WeatherDisplay:10.37,2013-03-15 08:14:00,
2013-03-15 01:29:00,51.1,50.3,30.27,SE,126,0.0,7.0,97,0.00,CLR,SCT,0.02,WeatherDisplay:10.37,2013-03-15 08:29:00,
2013-03-15 01:44:00,51.0,50.2,30.27,SSE,158,0.0,2.0,97,0.00,CLR,SCT,0.02,WeatherDisplay:10.37,2013-03-15 08:44:00,
2013-03-15 01:59:00,50.8,50.0,30.27,ENE,59,1.0,6.0,97,0.00,CLR,SCT,0.02,WeatherDisplay:10.37,2013-03-15 08:59:00,
2013-03-15 02:14:00,50.8,50.0,30.26,NNE,26,0.0,1.0,97,0.00,CLR,SCT,0.02,WeatherDisplay:10.37,2013-03-15 09:14:00,
2013-03-15 02:29:00,50.7,49.9,30.26,West,266,0.0,2.0,97,0.00,CLR,SCT,0.02,WeatherDisplay:10.37,2013-03-15 09:29:00,
2013-03-15 02:44:00,50.7,49.9,30.26,SW,226,0.0,1.0,97,0.00,CLR,SCT,0.02,WeatherDisplay:10.37,2013-03-15 09:44:00,
2013-03-15 02:59:00,50.6,49.8,30.26,SE,130,0.0,4.0,97,0.00,CLR,SCT,0.02,WeatherDisplay:10.37,2013-03-15 09:59:00,
2013-03-15 03:14:00,50.6,49.8,30.26,SE,130,0.0,1.0,97,0.00,CLR,SCT,0.02,WeatherDisplay:10.37,2013-03-15 10:14:00,
2013-03-15 03:29:00,50.5,49.7,30.26,SE,130,0.0,1.0,97,0.00,CLR,SCT,0.02,WeatherDisplay:10.37,2013-03-15 10:29:00,
2013-03-15 03:44:00,50.5,49.7,30.26,SE,130,0.0,0.0,97,0.00,CLR,SCT,0.02,WeatherDisplay:10.37,2013-03-15 10:44:00,
2013-03-15 03:59:00,50.5,49.7,30.26,SE,130,0.0,1.0,97,0.01,RA,SCT,0.03,WeatherDisplay:10.37,2013-03-15 10:59:00,
2013-03-15 04:14:00,50.5,49.7,30.26,SE,130,0.0,1.0,97,0.00,CLR,SCT,0.03,WeatherDisplay:10.37,2013-03-15 11:14:00,
2013-03-15 04:29:00,50.4,49.6,30.26,SE,131,0.0,1.0,97,0.00,CLR,SCT,0.03,WeatherDisplay:10.37,2013-03-15 11:29:00,
2013-03-15 04:44:00,50.4,49.6,30.26,WSW,251,0.0,2.0,97,0.00,CLR,SCT,0.03,WeatherDisplay:10.37,2013-03-15 11:44:00,
2013-03-15 04:59:00,50.4,49.6,30.26,SW,217,0.0,3.0,97,0.00,CLR,SCT,0.03,WeatherDisplay:10.37,2013-03-15 11:59:00,
2013-03-15 05:14:00,50.3,49.5,30.26,East,88,0.0,2.0,97,0.00,CLR,SCT,0.03,WeatherDisplay:10.37,2013-03-15 12:14:00,
2013-03-15 05:29:00,50.3,49.5,30.26,East,88,0.0,1.0,97,0.00,CLR,SCT,0.03,WeatherDisplay:10.37,2013-03-15 12:29:00,
2013-03-15 05:44:00,50.3,49.5,30.26,East,88,0.0,1.0,97,0.00,CLR,SCT,0.03,WeatherDisplay:10.37,2013-03-15 12:44:00,
2013-03-15 05:59:00,50.3,49.5,30.26,East,88,0.0,0.0,97,0.01,RA,SCT,0.04,WeatherDisplay:10.37,2013-03-15 12:59:00,
2013-03-15 06:14:00,50.3,49.5,30.26,East,88,0.0,0.0,97,0.00,CLR,SCT,0.04,WeatherDisplay:10.37,2013-03-15 13:14:00,
2013-03-15 06:29:00,50.3,49.5,30.26,East,88,0.0,0.0,97,0.00,CLR,SCT,0.04,WeatherDisplay:10.37,2013-03-15 13:29:00,
2013-03-15 06:44:00,50.2,49.4,30.26,East,88,0.0,0.0,97,0.00,CLR,SCT,0.04,WeatherDisplay:10.37,2013-03-15 13:44:00,
2013-03-15 06:59:00,50.2,49.4,30.26,East,88,0.0,0.0,97,0.00,CLR,SCT,0.04,WeatherDisplay:10.37,2013-03-15 13:59:00,
2013-03-15 07:14:00,50.2,49.4,30.26,East,88,0.0,0.0,97,0.00,CLR,SCT,0.04,WeatherDisplay:10.37,2013-03-15 14:14:00,
2013-03-15 07:29:00,50.2,49.4,30.26,East,88,0.0,0.0,97,0.00,CLR,SCT,0.04,WeatherDisplay:10.37,2013-03-15 14:29:00,
2013-03-15 07:44:00,50.2,49.4,30.26,East,88,0.0,0.0,97,0.00,CLR,SCT,0.04,WeatherDisplay:10.37,2013-03-15 14:44:00,
2013-03-15 07:59:00,50.3,49.8,30.26,East,88,0.0,0.0,98,0.00,CLR,SCT,0.04,WeatherDisplay:10.37,2013-03-15 14:59:00,
2013-03-15 08:14:00,50.5,50.0,30.27,East,88,0.0,0.0,98,0.00,CLR,SCT,0.04,WeatherDisplay:10.37,2013-03-15 15:14:00,
2013-03-15 08:29:00,50.5,50.0,30.27,East,88,0.0,0.0,98,0.00,CLR,SCT,0.04,WeatherDisplay:10.37,2013-03-15 15:29:00,
2013-03-15 08:44:00,50.8,50.0,30.27,East,88,0.0,1.0,97,0.00,CLR,SCT,0.04,WeatherDisplay:10.37,2013-03-15 15:44:00,
2013-03-15 08:59:00,51.0,50.5,30.27,East,88,0.0,1.0,98,0.00,CLR,SCT,0.04,WeatherDisplay:10.37,2013-03-15 15:59:00,
2013-03-15 09:14:00,50.9,50.4,30.28,East,88,0.0,1.0,98,0.00,CLR,SCT,0.04,WeatherDisplay:10.37,2013-03-15 16:14:00,
2013-03-15 09:29:00,50.9,50.4,30.28,East,88,0.0,1.0,98,0.00,CLR,SCT,0.04,WeatherDisplay:10.37,2013-03-15 16:29:00,
2013-03-15 09:44:00,50.9,50.4,30.28,East,88,0.0,1.0,98,0.00,CLR,SCT,0.04,WeatherDisplay:10.37,2013-03-15 16:44:00,
2013-03-15 09:59:00,51.1,50.6,30.28,East,88,0.0,0.0,98,0.00,CLR,SCT,0.04,WeatherDisplay:10.37,2013-03-15 16:59:00,
2013-03-15 10:14:00,51.5,51.0,30.28,East,87,0.0,1.0,98,0.00,CLR,SCT,0.04,WeatherDisplay:10.37,2013-03-15 17:14:00,
2013-03-15 10:29:00,51.6,51.1,30.27,West,271,0.0,3.0,98,0.00,CLR,SCT,0.04,WeatherDisplay:10.37,2013-03-15 17:29:00,
2013-03-15 10:44:00,52.2,51.7,30.28,West,271,0.0,1.0,98,0.00,CLR,SCT,0.04,WeatherDisplay:10.37,2013-03-15 17:44:00,
2013-03-15 10:59:00,52.2,51.4,30.28,West,271,0.0,2.0,97,0.00,CLR,SCT,0.04,WeatherDisplay:10.37,2013-03-15 17:59:00,
2013-03-15 11:14:00,53.1,52.3,30.28,West,271,0.0,2.0,97,0.00,CLR,SCT,0.04,WeatherDisplay:10.37,2013-03-15 18:14:00,
2013-03-15 11:29:00,53.5,51.8,30.28,WSW,255,0.0,2.0,94,0.00,CLR,SCT,0.04,WeatherDisplay:10.37,2013-03-15 18:29:00,
2013-03-15 11:44:00,54.4,52.4,30.28,SW,236,0.0,2.0,93,0.00,CLR,SCT,0.04,WeatherDisplay:10.37,2013-03-15 18:44:00,
2013-03-15 11:59:00,55.5,52.9,30.28,WNW,285,1.0,4.0,91,0.00,CLR,SCT,0.04,WeatherDisplay:10.37,2013-03-15 18:59:00,
2013-03-15 12:14:00,56.1,53.2,30.28,WSW,246,0.0,4.0,90,0.00,CLR,SCT,0.04,WeatherDisplay:10.37,2013-03-15 19:14:00,
2013-03-15 12:29:00,56.5,53.0,30.27,West,277,0.0,6.0,88,0.00,CLR,SCT,0.04,WeatherDisplay:10.37,2013-03-15 19:29:00,
2013-03-15 12:44:00,56.4,52.6,30.27,West,270,0.0,5.0,87,0.00,CLR,SCT,0.04,WeatherDisplay:10.37,2013-03-15 19:44:00,
2013-03-15 12:59:00,56.1,52.9,30.28,North,11,3.0,6.0,89,0.00,CLR,SCT,0.04,WeatherDisplay:10.37,2013-03-15 19:59:00,
2013-03-15 13:14:00,55.9,53.0,30.28,NNW,333,1.0,3.0,90,0.00,CLR,SCT,0.04,WeatherDisplay:10.37,2013-03-15 20:14:00,
2013-03-15 13:29:00,55.7,52.8,30.28,West,275,0.0,5.0,90,0.00,CLR,SCT,0.04,WeatherDisplay:10.37,2013-03-15 20:29:00,
2013-03-15 13:44:00,55.2,52.1,30.28,ENE,77,0.0,5.0,89,0.00,CLR,SCT,0.04,WeatherDisplay:10.37,2013-03-15 20:44:00,
2013-03-15 13:59:00,54.7,51.8,30.28,NW,304,0.0,4.0,90,0.00,CLR,SCT,0.04,WeatherDisplay:10.37,2013-03-15 20:59:00,
2013-03-15 14:14:00,54.9,52.0,30.27,West,276,0.0,2.0,90,0.00,CLR,SCT,0.04,WeatherDisplay:10.37,2013-03-15 21:14:00,
2013-03-15 14:29:00,55.0,52.1,30.27,West,279,0.0,4.0,90,0.00,CLR,SCT,0.04,WeatherDisplay:10.37,2013-03-15 21:29:00,
2013-03-15 14:44:00,54.8,51.9,30.27,WNW,282,1.0,7.0,90,0.00,CLR,SCT,0.04,WeatherDisplay:10.37,2013-03-15 21:44:00,
2013-03-15 14:59:00,55.1,52.2,30.26,WNW,284,2.0,5.0,90,0.00,CLR,SCT,0.04,WeatherDisplay:10.37,2013-03-15 21:59:00,
2013-03-15 15:14:00,54.9,52.0,30.26,WSW,257,0.0,4.0,90,0.00,CLR,SCT,0.04,WeatherDisplay:10.37,2013-03-15 22:14:00,
2013-03-15 15:29:00,54.7,51.8,30.26,West,270,2.0,6.0,90,0.00,CLR,SCT,0.04,WeatherDisplay:10.37,2013-03-15 22:29:00,
2013-03-15 15:44:00,54.3,51.1,30.26,WNW,302,3.0,9.0,89,0.00,CLR,SCT,0.04,WeatherDisplay:10.37,2013-03-15 22:44:00,
2013-03-15 15:59:00,53.5,50.6,30.26,WNW,286,2.0,9.0,90,0.01,CLR,SCT,0.05,WeatherDisplay:10.37,2013-03-15 22:59:00,
2013-03-15 16:14:00,53.0,50.5,30.27,WNW,295,1.0,6.0,91,0.00,CLR,SCT,0.05,WeatherDisplay:10.37,2013-03-15 23:14:00,
2013-03-15 16:29:00,52.8,50.2,30.27,WNW,296,0.0,5.0,91,0.00,CLR,SCT,0.05,WeatherDisplay:10.37,2013-03-15 23:29:00,
2013-03-15 16:44:00,52.2,49.9,30.27,West,278,0.0,7.0,92,0.00,CLR,SCT,0.05,WeatherDisplay:10.37,2013-03-15 23:44:00,
2013-03-15 16:59:00,51.6,49.6,30.28,WNW,289,0.0,9.0,93,0.00,CLR,SCT,0.05,WeatherDisplay:10.37,2013-03-15 23:59:00,
2013-03-15 17:14:00,51.3,49.3,30.28,WNW,297,0.0,5.0,93,0.00,CLR,SCT,0.05,WeatherDisplay:10.37,2013-03-16 00:14:00,
2013-03-15 17:29:00,51.2,49.5,30.27,West,280,1.0,4.0,94,0.00,CLR,SCT,0.05,WeatherDisplay:10.37,2013-03-16 00:29:00,
2013-03-15 17:44:00,51.3,49.3,30.27,WSW,257,0.0,2.0,93,0.00,CLR,SCT,0.05,WeatherDisplay:10.37,2013-03-16 00:44:00,
2013-03-15 17:59:00,51.1,49.4,30.26,WNW,303,0.0,4.0,94,0.00,CLR,SCT,0.05,WeatherDisplay:10.37,2013-03-16 00:59:00,
2013-03-15 18:14:00,51.0,49.3,30.27,West,268,2.0,4.0,94,0.00,CLR,SCT,0.05,WeatherDisplay:10.37,2013-03-16 01:14:00,
2013-03-15 18:29:00,50.6,49.0,30.27,WNW,294,0.0,2.0,94,0.00,CLR,SCT,0.05,WeatherDisplay:10.37,2013-03-16 01:29:00,
2013-03-15 18:44:00,50.5,49.1,30.26,WNW,288,0.0,1.0,95,0.00,CLR,SCT,0.05,WeatherDisplay:10.37,2013-03-16 01:44:00,
2013-03-15 18:59:00,50.0,48.6,30.26,NW,312,1.0,4.0,95,0.00,CLR,SCT,0.05,WeatherDisplay:10.37,2013-03-16 01:59:00,
2013-03-15 19:14:00,49.8,48.7,30.27,West,275,0.0,4.0,96,0.00,CLR,SCT,0.05,WeatherDisplay:10.37,2013-03-16 02:14:00,
2013-03-15 19:29:00,49.7,48.6,30.26,West,259,0.0,2.0,96,0.00,CLR,SCT,0.05,WeatherDisplay:10.37,2013-03-16 02:29:00,
2013-03-15 19:44:00,49.6,48.5,30.26,SSW,198,0.0,1.0,96,0.00,CLR,SCT,0.05,WeatherDisplay:10.37,2013-03-16 02:44:00,
2013-03-15 19:59:00,49.4,48.3,30.26,SSW,206,0.0,1.0,96,0.00,CLR,SCT,0.05,WeatherDisplay:10.37,2013-03-16 02:59:00,
2013-03-15 20:14:00,49.3,48.2,30.26,SE,145,0.0,1.0,96,0.00,CLR,SCT,0.05,WeatherDisplay:10.37,2013-03-16 03:14:00,
2013-03-15 20:29:00,49.3,48.2,30.26,SE,145,0.0,1.0,96,0.00,CLR,SCT,0.05,WeatherDisplay:10.37,2013-03-16 03:29:00,
2013-03-15 20:44:00,49.3,48.2,30.26,SE,145,0.0,1.0,96,0.00,CLR,SCT,0.05,WeatherDisplay:10.37,2013-03-16 03:44:00,
2013-03-15 20:59:00,49.1,48.0,30.27,WNW,293,0.0,2.0,96,0.00,CLR,SCT,0.05,WeatherDisplay:10.37,2013-03-16 03:59:00,
2013-03-15 21:14:00,48.8,47.7,30.26,WNW,287,0.0,3.0,96,0.00,CLR,SCT,0.05,WeatherDisplay:10.37,2013-03-16 04:14:00,
2013-03-15 21:29:00,48.9,48.1,30.26,West,275,0.0,0.0,97,0.00,CLR,SCT,0.05,WeatherDisplay:10.37,2013-03-16 04:29:00,
2013-03-15 21:44:00,48.8,48.0,30.26,West,275,0.0,1.0,97,0.00,CLR,SCT,0.05,WeatherDisplay:10.37,2013-03-16 04:44:00,
2013-03-15 21:59:00,48.6,47.8,30.26,West,275,0.0,0.0,97,0.00,CLR,SCT,0.05,WeatherDisplay:10.37,2013-03-16 04:59:00,
2013-03-15 22:59:00,47.8,47.0,30.26,West,276,0.0,1.0,97,0.00,CLR,SCT,0.05,WeatherDisplay:10.37,2013-03-16 05:59:00,
2013-03-15 23:59:00,47.3,46.5,30.26,WSW,258,0.0,1.0,97,0.00,RA,SCT,0.00,WeatherDisplay:10.37,2013-03-16 06:59:00,